createdAt,value
2022-11-01T00:00:00.198Z,81
2022-11-01T00:05:00.186Z,81
2022-11-01T00:10:00.185Z,81
2022-11-01T00:15:00.203Z,80
2022-11-01T00:20:00.199Z,81
2022-11-01T00:25:00.221Z,81
2022-11-01T00:30:00.202Z,81
2022-11-01T00:35:00.205Z,81
2022-11-01T00:40:00.215Z,81
2022-11-01T00:45:00.197Z,81
2022-11-01T00:50:00.194Z,80
2022-11-01T00:55:00.204Z,81
2022-11-01T01:00:00.507Z,81
2022-11-01T01:05:00.189Z,81
2022-11-01T01:10:00.216Z,81
2022-11-01T01:15:00.211Z,82
2022-11-01T01:20:00.207Z,82
2022-11-01T01:25:00.205Z,82
2022-11-01T01:30:00.222Z,82
2022-11-01T01:35:00.190Z,82
2022-11-01T01:40:00.200Z,82
2022-11-01T01:45:00.198Z,83
2022-11-01T01:50:00.379Z,82
2022-11-01T01:55:00.201Z,82
2022-11-01T02:00:00.210Z,83
2022-11-01T02:05:00.220Z,82
2022-11-01T02:10:00.183Z,82
2022-11-01T02:15:00.194Z,82
2022-11-01T02:20:00.183Z,81
2022-11-01T02:25:00.180Z,81
2022-11-01T02:30:00.183Z,81
2022-11-01T02:35:00.220Z,81
2022-11-01T02:40:00.192Z,81
2022-11-01T02:45:00.178Z,81
2022-11-01T02:50:00.206Z,81
2022-11-01T02:55:00.199Z,81
2022-11-01T03:00:00.196Z,82
2022-11-01T03:05:00.199Z,81
2022-11-01T03:10:00.178Z,81
2022-11-01T03:15:00.216Z,82
2022-11-01T03:20:00.215Z,82
2022-11-01T03:25:00.190Z,82
2022-11-01T03:30:00.209Z,83
2022-11-01T03:35:00.195Z,82
2022-11-01T03:40:00.178Z,82
2022-11-01T03:45:00.211Z,82
2022-11-01T03:50:00.178Z,82
2022-11-01T03:55:00.214Z,82
2022-11-01T04:00:00.252Z,82
2022-11-01T04:05:00.237Z,82
2022-11-01T04:10:00.197Z,81
2022-11-01T04:15:00.235Z,79
2022-11-01T04:20:00.184Z,78
2022-11-01T04:25:00.197Z,78
2022-11-01T04:30:00.213Z,77
2022-11-01T04:35:00.284Z,77
2022-11-01T04:40:00.182Z,76
2022-11-01T04:45:00.208Z,76
2022-11-01T04:50:00.206Z,71
2022-11-01T04:55:00.205Z,69
2022-11-01T05:00:00.250Z,69
2022-11-01T05:05:00.207Z,70
2022-11-01T05:10:00.205Z,71
2022-11-01T05:15:00.181Z,71
2022-11-01T05:20:00.195Z,72
2022-11-01T05:25:00.187Z,71
2022-11-01T05:30:00.218Z,71
2022-11-01T05:35:00.193Z,71
2022-11-01T05:40:00.218Z,72
2022-11-01T05:45:00.208Z,71
2022-11-01T05:50:00.189Z,71
2022-11-01T05:55:00.202Z,72
2022-11-01T06:00:00.277Z,73
2022-11-01T06:05:02.827Z,74
2022-11-01T06:10:00.205Z,73
2022-11-01T06:15:00.233Z,73
2022-11-01T06:20:00.221Z,73
2022-11-01T06:25:00.211Z,72
2022-11-01T06:30:00.271Z,72
2022-11-01T06:35:00.231Z,72
2022-11-01T06:40:00.211Z,72
2022-11-01T06:45:00.213Z,70
2022-11-01T06:50:00.233Z,70
2022-11-01T06:55:00.238Z,69
2022-11-01T07:00:00.265Z,67
2022-11-01T07:05:01.822Z,66
2022-11-01T07:10:00.183Z,66
2022-11-01T07:15:00.234Z,67
2022-11-01T07:20:00.206Z,67
2022-11-01T07:25:00.199Z,66
2022-11-01T07:30:00.241Z,66
2022-11-01T07:35:00.194Z,67
2022-11-01T07:40:00.213Z,66
2022-11-01T07:45:00.180Z,65
2022-11-01T07:50:00.217Z,65
2022-11-01T07:55:00.354Z,65
2022-11-01T08:00:00.204Z,65
2022-11-01T08:05:00.187Z,64
2022-11-01T08:10:00.197Z,65
2022-11-01T08:15:00.192Z,64
2022-11-01T08:20:00.185Z,65
2022-11-01T08:25:00.343Z,66
2022-11-01T08:30:00.241Z,65
2022-11-01T08:35:00.204Z,65
2022-11-01T08:40:00.241Z,64
2022-11-01T08:45:00.223Z,65
2022-11-01T08:50:00.237Z,65
2022-11-01T08:55:00.226Z,66
2022-11-01T09:00:00.228Z,66
2022-11-01T09:05:00.195Z,66
2022-11-01T09:10:00.235Z,67
2022-11-01T09:15:00.197Z,67
2022-11-01T09:20:00.176Z,67
2022-11-01T09:25:00.217Z,67
2022-11-01T09:30:00.205Z,67
2022-11-01T09:35:00.191Z,67
2022-11-01T09:40:00.224Z,66
2022-11-01T09:45:00.202Z,67
2022-11-01T09:50:00.183Z,67
2022-11-01T09:55:00.206Z,65
2022-11-01T10:00:00.209Z,65
2022-11-01T10:05:00.207Z,64
2022-11-01T10:10:00.176Z,64
2022-11-01T10:15:00.209Z,64
2022-11-01T10:20:00.335Z,64
2022-11-01T10:25:00.169Z,65
2022-11-01T10:30:00.225Z,65
2022-11-01T10:35:00.190Z,64
2022-11-01T10:40:04.817Z,64
2022-11-01T10:45:00.182Z,64
2022-11-01T10:50:07.655Z,65
2022-11-01T10:55:00.202Z,64
2022-11-01T11:00:00.220Z,65
2022-11-01T11:05:00.180Z,64
2022-11-01T11:15:00.189Z,64
2022-11-01T11:20:00.246Z,64
2022-11-01T11:25:00.195Z,63
2022-11-01T11:30:00.204Z,63
2022-11-01T11:35:00.199Z,63
2022-11-01T11:40:00.246Z,63
2022-11-01T11:45:00.250Z,62
2022-11-01T11:50:00.204Z,61
2022-11-01T11:55:00.212Z,61
2022-11-01T12:00:00.347Z,62
2022-11-01T12:05:00.191Z,62
2022-11-01T12:10:00.189Z,61
2022-11-01T12:15:00.186Z,61
2022-11-01T12:20:00.192Z,60
2022-11-01T12:25:00.178Z,61
2022-11-01T12:30:00.207Z,61
2022-11-01T12:35:00.212Z,60
2022-11-01T12:40:00.203Z,60
2022-11-01T12:45:00.224Z,61
2022-11-01T12:50:00.179Z,60
2022-11-01T12:55:00.196Z,60
2022-11-01T13:00:00.199Z,60
2022-11-01T13:05:00.218Z,59
2022-11-01T13:10:00.175Z,59
2022-11-01T13:15:00.192Z,60
2022-11-01T13:20:00.195Z,60
2022-11-01T13:25:00.205Z,59
2022-11-01T13:30:00.211Z,57
2022-11-01T13:35:00.200Z,59
2022-11-01T13:40:00.209Z,59
2022-11-01T13:45:00.215Z,59
2022-11-01T13:50:00.205Z,60
2022-11-01T13:55:00.198Z,60
2022-11-01T14:00:00.240Z,61
2022-11-01T14:05:00.190Z,62
2022-11-01T14:10:00.221Z,62
2022-11-01T14:15:00.175Z,61
2022-11-01T14:20:00.210Z,61
2022-11-01T14:25:00.223Z,61
2022-11-01T14:30:00.235Z,62
2022-11-01T14:35:00.257Z,61
2022-11-01T14:40:00.200Z,61
2022-11-01T14:45:00.241Z,61
2022-11-01T14:50:00.202Z,61
2022-11-01T14:55:00.199Z,61
2022-11-01T15:00:00.193Z,61
2022-11-01T15:05:00.224Z,61
2022-11-01T15:10:00.186Z,61
2022-11-01T15:15:00.185Z,62
2022-11-01T15:20:00.212Z,61
2022-11-01T15:25:00.186Z,62
2022-11-01T15:30:00.251Z,61
2022-11-01T15:35:00.188Z,63
2022-11-01T15:45:00.192Z,62
2022-11-01T15:50:00.208Z,64
2022-11-01T15:55:00.203Z,63
2022-11-01T16:00:00.256Z,64
2022-11-01T16:05:00.202Z,64
2022-11-01T16:10:00.202Z,64
2022-11-01T16:15:00.214Z,65
2022-11-01T16:20:00.190Z,64
2022-11-01T16:25:00.198Z,66
2022-11-01T16:30:00.225Z,65
2022-11-01T16:35:00.213Z,64
2022-11-01T16:40:00.195Z,65
2022-11-01T16:45:00.198Z,64
2022-11-01T16:50:00.181Z,65
2022-11-01T17:00:00.195Z,65
2022-11-01T17:05:00.178Z,65
2022-11-01T17:10:00.189Z,65
2022-11-01T17:15:00.223Z,64
2022-11-01T17:20:00.211Z,64
2022-11-01T17:25:00.178Z,64
2022-11-01T17:30:00.402Z,64
2022-11-01T17:35:00.178Z,63
2022-11-01T17:40:00.286Z,63
2022-11-01T17:45:00.192Z,63
2022-11-01T17:50:00.213Z,63
2022-11-01T17:55:00.180Z,63
2022-11-01T18:00:00.204Z,63
2022-11-01T18:05:00.198Z,64
2022-11-01T18:10:00.180Z,64
2022-11-01T18:15:00.211Z,64
2022-11-01T18:20:00.192Z,64
2022-11-01T18:25:00.184Z,64
2022-11-01T18:30:00.193Z,64
2022-11-01T18:35:00.305Z,64
2022-11-01T18:40:00.181Z,65
2022-11-01T18:45:00.201Z,65
2022-11-01T18:50:00.193Z,65
2022-11-01T18:55:00.198Z,66
2022-11-01T19:00:00.212Z,66
2022-11-01T19:05:00.190Z,66
2022-11-01T19:10:00.203Z,65
2022-11-01T19:15:00.224Z,66
2022-11-01T19:20:00.198Z,66
2022-11-01T19:25:00.196Z,66
2022-11-01T19:30:00.229Z,67
2022-11-01T19:35:00.188Z,67
2022-11-01T19:40:00.179Z,67
2022-11-01T19:45:00.197Z,66
2022-11-01T19:50:00.193Z,67
2022-11-01T19:55:00.181Z,66
2022-11-01T20:00:00.228Z,67
2022-11-01T20:05:00.205Z,67
2022-11-01T20:10:00.213Z,67
2022-11-01T20:15:00.215Z,67
2022-11-01T20:20:00.220Z,68
2022-11-01T20:25:00.209Z,68
2022-11-01T20:30:00.198Z,67
2022-11-01T20:35:00.222Z,68
2022-11-01T20:40:00.203Z,69
2022-11-01T20:45:00.201Z,70
2022-11-01T20:50:00.210Z,70
2022-11-01T20:55:00.178Z,70
2022-11-01T21:00:00.284Z,70
2022-11-01T21:05:00.239Z,70
2022-11-01T21:10:00.217Z,70
2022-11-01T21:15:00.211Z,70
2022-11-01T21:20:00.187Z,70
2022-11-01T21:25:00.197Z,71
2022-11-01T21:30:00.192Z,75
2022-11-01T21:35:00.183Z,75
2022-11-01T21:40:04.957Z,74
2022-11-01T21:45:00.205Z,74
2022-11-01T21:50:00.219Z,73
2022-11-01T21:55:00.207Z,73
2022-11-01T22:00:00.211Z,72
2022-11-01T22:05:00.209Z,72
2022-11-01T22:10:00.210Z,72
2022-11-01T22:15:00.209Z,71
2022-11-01T22:20:00.203Z,71
2022-11-01T22:25:00.201Z,71
2022-11-01T22:30:00.231Z,72
2022-11-01T22:35:00.192Z,74
2022-11-01T22:40:00.201Z,76
2022-11-01T22:45:00.203Z,80
2022-11-01T22:50:00.204Z,83
2022-11-01T22:55:00.178Z,86
2022-11-01T23:00:00.246Z,88
2022-11-01T23:05:00.186Z,88
2022-11-01T23:10:00.174Z,89
2022-11-01T23:15:00.200Z,89
2022-11-01T23:20:00.268Z,90
2022-11-01T23:25:00.200Z,90
2022-11-01T23:30:00.242Z,91
2022-11-01T23:35:00.208Z,91
2022-11-01T23:40:00.242Z,91
2022-11-01T23:45:00.218Z,91
2022-11-01T23:50:00.185Z,91
2022-11-01T23:55:00.187Z,91
